Time;durP1;ratioP1;P1;durP2;ratioP2;P2;SDS_P1;SDS_P2;PMS_P1;PMS_P2;Temp;Humidity;BMP_temperature;BMP_pressure;BME280_temperature;BME280_humidity;BME280_pressure;Samples;Min_cycle;Max_cycle;Signal;HPM_P1;HPM_P2
2022/12/09 00:00:10;0.00;0.00;0.62;0.00;0.00;0.62;2.13;1.70;;;21.40;25.70;;;;;;2246274;61;20948;-71
2022/12/09 00:02:55;0.00;0.00;0.62;0.00;0.00;0.62;1.90;1.23;;;21.40;25.70;;;;;;2251096;61;20454;-71
2022/12/09 00:05:40;0.00;0.00;0.62;0.00;0.00;0.62;1.97;1.50;;;21.40;25.50;;;;;;2232532;61;20390;-70
2022/12/09 00:08:26;0.00;0.00;0.62;0.00;0.00;0.62;1.67;1.27;;;21.50;25.60;;;;;;2222552;62;20383;-70
2022/12/09 00:11:11;0.00;0.00;0.62;0.00;0.00;0.62;2.43;1.53;;;21.50;25.50;;;;;;2211874;62;20394;-72
2022/12/09 00:14:13;0.00;0.00;0.62;0.00;0.00;0.62;2.03;1.43;;;21.50;25.50;;;;;;2150742;63;43300;-72
2022/12/09 00:16:58;0.00;0.00;0.62;0.00;0.00;0.62;3.47;1.43;;;21.40;25.50;;;;;;2128072;64;20485;-70
2022/12/09 00:19:42;0.00;0.00;0.62;0.00;0.00;0.62;1.93;1.40;;;21.40;25.40;;;;;;2130122;65;20487;-70
2022/12/09 00:22:27;0.00;0.00;0.62;0.00;0.00;0.62;1.67;1.03;;;21.40;25.40;;;;;;2132598;64;20386;-69
2022/12/09 00:25:11;0.00;0.00;0.62;0.00;0.00;0.62;2.67;1.60;;;21.50;25.50;;;;;;2133166;64;20436;-69
2022/12/09 00:27:55;0.00;0.00;0.62;0.00;0.00;0.62;1.80;1.27;;;21.40;25.40;;;;;;2132035;64;20801;-70
2022/12/09 00:30:40;0.00;0.00;0.62;0.00;0.00;0.62;2.17;1.63;;;21.40;25.40;;;;;;2133320;64;20393;-72
2022/12/09 00:33:24;0.00;0.00;0.62;0.00;0.00;0.62;2.40;1.30;;;21.40;25.40;;;;;;2133341;64;20413;-75
2022/12/09 00:36:09;0.00;0.00;0.62;0.00;0.00;0.62;1.80;1.30;;;21.40;25.40;;;;;;2132235;64;20421;-75
2022/12/09 00:38:53;0.00;0.00;0.62;0.00;0.00;0.62;1.77;1.30;;;21.40;25.40;;;;;;2133420;64;20852;-68
2022/12/09 00:41:37;0.00;0.00;0.62;0.00;0.00;0.62;2.50;2.10;;;21.40;25.50;;;;;;2133253;64;20389;-73
2022/12/09 00:44:22;0.00;0.00;0.62;0.00;0.00;0.62;2.50;2.03;;;21.40;25.50;;;;;;2133152;64;20389;-72
2022/12/09 00:47:07;0.00;0.00;0.62;0.00;0.00;0.62;4.17;2.73;;;21.40;25.40;;;;;;2133924;64;20405;-71
2022/12/09 00:49:51;0.00;0.00;0.62;0.00;0.00;0.62;3.50;3.10;;;21.40;25.30;;;;;;2132878;64;20431;-71
2022/12/09 00:52:36;0.00;0.00;0.62;0.00;0.00;0.62;4.37;3.97;;;21.40;25.10;;;;;;2133809;64;20456;-69
2022/12/09 00:55:20;0.00;0.00;0.62;0.00;0.00;0.62;4.73;4.07;;;21.40;25.00;;;;;;2133883;64;20392;-69
2022/12/09 00:58:05;0.00;0.00;0.62;0.00;0.00;0.62;5.00;4.50;;;21.40;24.80;;;;;;2132446;64;20450;-71
2022/12/09 01:00:50;0.00;0.00;0.62;0.00;0.00;0.62;4.33;3.93;;;21.40;24.80;;;;;;2133966;64;20458;-71
2022/12/09 01:03:35;0.00;0.00;0.62;0.00;0.00;0.62;5.93;5.30;;;21.40;24.70;;;;;;2133847;64;20537;-71
2022/12/09 01:06:20;0.00;0.00;0.62;0.00;0.00;0.62;4.80;4.40;;;21.40;24.60;;;;;;2132786;64;20392;-71
2022/12/09 01:09:04;0.00;0.00;0.62;0.00;0.00;0.62;5.93;5.37;;;21.30;24.50;;;;;;2133436;64;20459;-70
2022/12/09 01:11:51;0.00;0.00;0.62;0.00;0.00;0.62;6.60;5.57;;;21.30;24.40;;;;;;2134454;64;20435;-71
2022/12/09 01:14:36;0.00;0.00;0.62;0.00;0.00;0.62;6.83;5.83;;;21.30;24.30;;;;;;2138322;64;20417;-69
2022/12/09 01:17:21;0.00;0.00;0.62;0.00;0.00;0.62;6.97;5.97;;;21.20;24.20;;;;;;2137057;64;1320189;-71
2022/12/09 01:20:10;0.00;0.00;0.62;0.00;0.00;0.62;6.70;5.67;;;21.30;24.20;;;;;;2165178;64;20376;-69
2022/12/09 01:22:55;0.00;0.00;0.62;0.00;0.00;0.62;7.13;5.60;;;21.20;24.10;;;;;;2168030;64;20390;-70
2022/12/09 01:25:40;0.00;0.00;0.62;0.00;0.00;0.62;10.17;7.03;;;21.20;24.00;;;;;;2169917;63;20439;-71
2022/12/09 01:28:26;0.00;0.00;0.62;0.00;0.00;0.62;8.23;7.43;;;21.20;24.00;;;;;;2168813;63;20532;-69
2022/12/09 01:31:15;0.00;0.00;0.62;0.00;0.00;0.62;7.53;6.67;;;21.20;24.00;;;;;;2167939;64;20419;-69
2022/12/09 01:33:59;0.00;0.00;0.62;0.00;0.00;0.62;8.37;6.90;;;21.10;24.40;;;;;;2167403;64;20402;-72
2022/12/09 01:36:46;0.00;0.00;0.62;0.00;0.00;0.62;7.93;6.43;;;21.10;23.90;;;;;;2168026;64;20426;-69
2022/12/09 01:39:32;0.00;0.00;0.62;0.00;0.00;0.62;8.20;7.50;;;21.10;23.90;;;;;;2170098;63;20397;-69
2022/12/09 01:42:19;0.00;0.00;0.62;0.00;0.00;0.62;9.20;6.67;;;21.00;23.80;;;;;;2168676;63;20904;-68
2022/12/09 01:46:10;0.00;0.00;0.62;0.00;0.00;0.62;9.30;6.63;;;21.00;23.70;;;;;;2167817;64;20969;-70
2022/12/09 01:49:41;0.00;0.00;0.62;0.00;0.00;0.62;7.83;7.00;;;21.00;23.70;;;;;;2166340;63;20406;-68
2022/12/09 01:52:29;0.00;0.00;0.62;0.00;0.00;0.62;7.60;6.80;;;20.90;23.50;;;;;;2167024;64;20977;-71
2022/12/09 01:55:14;0.00;0.00;0.62;0.00;0.00;0.62;7.00;6.30;;;20.90;23.60;;;;;;2170091;63;21028;-69
2022/12/09 01:58:00;0.00;0.00;0.62;0.00;0.00;0.62;8.13;6.47;;;20.90;23.60;;;;;;2168874;63;20384;-69
2022/12/09 02:00:45;0.00;0.00;0.62;0.00;0.00;0.62;9.07;6.63;;;20.80;23.50;;;;;;2167667;64;20386;-69
2022/12/09 02:03:30;0.00;0.00;0.62;0.00;0.00;0.62;7.97;7.10;;;20.80;23.50;;;;;;2169778;63;20430;-70
2022/12/09 02:06:16;0.00;0.00;0.62;0.00;0.00;0.62;8.13;6.90;;;20.80;23.50;;;;;;2167438;64;20390;-70
2022/12/09 02:09:04;0.00;0.00;0.62;0.00;0.00;0.62;7.20;6.50;;;20.80;23.50;;;;;;2170010;63;20456;-71
2022/12/09 02:12:10;0.00;0.00;0.62;0.00;0.00;0.62;7.07;6.37;;;20.70;23.40;;;;;;2165579;63;20437;-70
2022/12/09 02:15:02;0.00;0.00;0.62;0.00;0.00;0.62;9.47;6.63;;;20.70;23.50;;;;;;2167111;63;20455;-70
2022/12/09 02:17:53;0.00;0.00;0.62;0.00;0.00;0.62;8.47;7.23;;;20.70;23.40;;;;;;2199656;62;20548;-70
2022/12/09 02:20:42;0.00;0.00;0.62;0.00;0.00;0.62;7.17;5.90;;;20.70;23.40;;;;;;2203246;62;20433;-71
2022/12/09 02:23:34;0.00;0.00;0.62;0.00;0.00;0.62;7.70;7.00;;;20.60;23.40;;;;;;2204206;62;20540;-71
2022/12/09 02:26:29;0.00;0.00;0.62;0.00;0.00;0.62;6.90;6.20;;;20.60;23.40;;;;;;2202769;62;20974;-69
2022/12/09 02:29:57;0.00;0.00;0.62;0.00;0.00;0.62;7.63;6.93;;;20.60;23.40;;;;;;2203757;62;20398;-71
2022/12/09 02:33:25;0.00;0.00;0.62;0.00;0.00;0.62;7.80;7.10;;;20.50;23.30;;;;;;2203340;62;20503;-69
2022/12/09 02:36:15;0.00;0.00;0.62;0.00;0.00;0.62;6.37;5.77;;;20.50;23.30;;;;;;2203724;62;20428;-69
2022/12/09 02:39:02;0.00;0.00;0.62;0.00;0.00;0.62;8.53;5.90;;;20.50;23.30;;;;;;2203967;62;20843;-69
2022/12/09 02:41:51;0.00;0.00;0.62;0.00;0.00;0.62;6.87;6.10;;;20.50;23.30;;;;;;2202596;62;20382;-71
2022/12/09 02:44:38;0.00;0.00;0.62;0.00;0.00;0.62;7.17;6.20;;;20.40;23.30;;;;;;2203916;62;20460;-69
2022/12/09 02:47:27;0.00;0.00;0.62;0.00;0.00;0.62;7.47;6.77;;;20.40;23.30;;;;;;2203639;62;20953;-69
2022/12/09 02:50:15;0.00;0.00;0.62;0.00;0.00;0.62;7.70;6.90;;;20.40;23.30;;;;;;2200989;63;20402;-71
2022/12/09 02:53:07;0.00;0.00;0.62;0.00;0.00;0.62;6.43;5.63;;;20.40;23.30;;;;;;2203954;62;20398;-71
2022/12/09 02:55:54;0.00;0.00;0.62;0.00;0.00;0.62;6.03;5.53;;;20.30;23.20;;;;;;2202727;62;20386;-70
2022/12/09 02:58:39;0.00;0.00;0.62;0.00;0.00;0.62;7.60;5.70;;;20.30;23.20;;;;;;2201344;63;20434;-71
2022/12/09 03:01:34;0.00;0.00;0.62;0.00;0.00;0.62;7.67;6.60;;;20.30;23.20;;;;;;2201625;63;20374;-70
2022/12/09 03:04:25;0.00;0.00;0.62;0.00;0.00;0.62;6.37;5.77;;;20.30;23.30;;;;;;2200182;63;20370;-70
2022/12/09 03:07:19;0.00;0.00;0.62;0.00;0.00;0.62;7.13;6.40;;;20.20;23.20;;;;;;2201344;63;20374;-70
2022/12/09 03:10:11;0.00;0.00;0.62;0.00;0.00;0.62;7.67;6.20;;;20.20;23.20;;;;;;2201174;63;20885;-70
2022/12/09 03:13:03;0.00;0.00;0.62;0.00;0.00;0.62;6.70;5.67;;;20.20;23.20;;;;;;2202090;62;20431;-69
2022/12/09 03:15:57;0.00;0.00;0.62;0.00;0.00;0.62;7.13;6.33;;;20.10;23.10;;;;;;2211965;62;20418;-71
2022/12/09 03:18:47;0.00;0.00;0.62;0.00;0.00;0.62;5.93;5.30;;;20.10;23.20;;;;;;2223369;62;20531;-70
2022/12/09 03:21:37;0.00;0.00;0.62;0.00;0.00;0.62;7.10;6.23;;;20.10;23.20;;;;;;2224659;62;20414;-70
2022/12/09 03:24:29;0.00;0.00;0.62;0.00;0.00;0.62;7.70;7.00;;;20.10;23.20;;;;;;2224570;62;20889;-70
2022/12/09 03:27:22;0.00;0.00;0.62;0.00;0.00;0.62;7.00;5.57;;;20.10;23.20;;;;;;2223940;62;20373;-71
2022/12/09 03:30:09;0.00;0.00;0.62;0.00;0.00;0.62;8.40;6.37;;;20.10;23.20;;;;;;2224637;62;20433;-70
2022/12/09 03:32:56;0.00;0.00;0.62;0.00;0.00;0.62;7.10;6.40;;;20.10;23.20;;;;;;2223183;62;20469;-70
2022/12/09 03:35:44;0.00;0.00;0.62;0.00;0.00;0.62;9.30;6.17;;;20.00;23.10;;;;;;2224724;62;20788;-68
2022/12/09 03:38:35;0.00;0.00;0.62;0.00;0.00;0.62;6.83;5.77;;;20.00;23.10;;;;;;2224467;62;20893;-70
2022/12/09 03:41:27;0.00;0.00;0.62;0.00;0.00;0.62;5.90;5.17;;;20.00;23.10;;;;;;2223345;62;20361;-70
2022/12/09 03:44:24;0.00;0.00;0.62;0.00;0.00;0.62;7.37;6.13;;;20.00;23.10;;;;;;2224500;62;20369;-70
2022/12/09 03:47:09;0.00;0.00;0.62;0.00;0.00;0.62;6.70;6.10;;;19.90;23.00;;;;;;2223661;62;20398;-70
2022/12/09 03:49:54;0.00;0.00;0.62;0.00;0.00;0.62;6.53;5.90;;;19.90;23.00;;;;;;2224467;62;20453;-70
2022/12/09 03:52:44;0.00;0.00;0.62;0.00;0.00;0.62;6.20;5.60;;;19.90;23.00;;;;;;2224484;62;20812;-69
2022/12/09 03:55:35;0.00;0.00;0.62;0.00;0.00;0.62;6.43;5.87;;;19.90;23.00;;;;;;2223400;62;20449;-68
2022/12/09 03:58:20;0.00;0.00;0.62;0.00;0.00;0.62;6.80;6.20;;;19.90;23.00;;;;;;2224480;62;20465;-69
2022/12/09 04:01:06;0.00;0.00;0.62;0.00;0.00;0.62;7.60;6.77;;;19.90;23.00;;;;;;2224533;62;20388;-69
2022/12/09 04:03:54;0.00;0.00;0.62;0.00;0.00;0.62;7.80;6.40;;;19.80;22.90;;;;;;2223506;62;20373;-69
2022/12/09 04:06:39;0.00;0.00;0.62;0.00;0.00;0.62;7.67;6.53;;;19.80;22.90;;;;;;2224252;62;20422;-68
2022/12/09 04:09:24;0.00;0.00;0.62;0.00;0.00;0.62;7.27;6.57;;;19.80;22.90;;;;;;2224236;62;20499;-68
2022/12/09 04:12:09;0.00;0.00;0.62;0.00;0.00;0.62;7.40;5.80;;;19.80;22.90;;;;;;2222274;62;20411;-70
2022/12/09 04:14:54;0.00;0.00;0.62;0.00;0.00;0.62;7.57;5.70;;;19.80;22.90;;;;;;2227161;62;20381;-69
2022/12/09 04:17:40;0.00;0.00;0.62;0.00;0.00;0.62;6.33;5.83;;;19.80;22.90;;;;;;2232152;62;20391;-70
2022/12/09 04:20:25;0.00;0.00;0.62;0.00;0.00;0.62;6.67;6.00;;;19.70;22.80;;;;;;2233093;62;20394;-69
2022/12/09 04:23:10;0.00;0.00;0.62;0.00;0.00;0.62;6.57;5.83;;;19.70;22.80;;;;;;2235325;62;20382;-69
2022/12/09 04:25:54;0.00;0.00;0.62;0.00;0.00;0.62;6.50;5.87;;;19.70;22.80;;;;;;2231788;62;20374;-70
2022/12/09 04:28:39;0.00;0.00;0.62;0.00;0.00;0.62;7.10;6.40;;;19.70;22.90;;;;;;2232894;62;20390;-68
2022/12/09 04:31:24;0.00;0.00;0.62;0.00;0.00;0.62;7.70;6.50;;;19.60;22.80;;;;;;2232864;62;20371;-67
2022/12/09 04:34:10;0.00;0.00;0.62;0.00;0.00;0.62;6.83;6.13;;;19.60;22.80;;;;;;2232298;62;20395;-68
2022/12/09 04:36:55;0.00;0.00;0.62;0.00;0.00;0.62;6.73;6.03;;;19.60;22.80;;;;;;2233014;62;20919;-67
2022/12/09 04:39:40;0.00;0.00;0.62;0.00;0.00;0.62;7.23;6.50;;;19.60;22.80;;;;;;2231544;62;20529;-69
2022/12/09 04:42:24;0.00;0.00;0.62;0.00;0.00;0.62;6.33;5.73;;;19.60;22.80;;;;;;2232903;62;21047;-68
2022/12/09 04:45:10;0.00;0.00;0.62;0.00;0.00;0.62;10.53;6.20;;;19.60;22.80;;;;;;2233017;62;20362;-69
2022/12/09 04:47:54;0.00;0.00;0.62;0.00;0.00;0.62;8.63;6.60;;;19.60;22.80;;;;;;2231416;62;20432;-70
2022/12/09 04:50:40;0.00;0.00;0.62;0.00;0.00;0.62;6.57;5.63;;;19.50;22.80;;;;;;2232843;62;20411;-68
2022/12/09 04:53:26;0.00;0.00;0.62;0.00;0.00;0.62;6.97;5.80;;;19.50;22.80;;;;;;2232985;62;20387;-70
2022/12/09 04:56:19;0.00;0.00;0.62;0.00;0.00;0.62;7.87;6.40;;;19.50;22.80;;;;;;2231970;62;20931;-69
2022/12/09 04:59:04;0.00;0.00;0.62;0.00;0.00;0.62;9.80;6.67;;;19.50;22.80;;;;;;2232874;62;20419;-70
2022/12/09 05:01:49;0.00;0.00;0.62;0.00;0.00;0.62;7.83;6.43;;;19.50;22.80;;;;;;2231605;62;20793;-69
2022/12/09 05:04:34;0.00;0.00;0.62;0.00;0.00;0.62;7.70;6.37;;;19.40;22.70;;;;;;2232875;62;20366;-70
2022/12/09 05:07:22;0.00;0.00;0.62;0.00;0.00;0.62;6.40;5.80;;;19.40;22.70;;;;;;2232744;62;20541;-69
2022/12/09 05:10:07;0.00;0.00;0.62;0.00;0.00;0.62;6.53;5.70;;;19.40;22.70;;;;;;2231650;62;20399;-69
2022/12/09 05:12:52;0.00;0.00;0.62;0.00;0.00;0.62;7.13;5.63;;;19.40;22.80;;;;;;2230292;62;20855;-68
2022/12/09 05:15:37;0.00;0.00;0.62;0.00;0.00;0.62;6.83;5.80;;;19.40;22.80;;;;;;2229898;62;20383;-70
2022/12/09 05:18:22;0.00;0.00;0.62;0.00;0.00;0.62;5.60;4.93;;;19.40;22.80;;;;;;2235893;61;20519;-70
2022/12/09 05:21:09;0.00;0.00;0.62;0.00;0.00;0.62;6.47;5.50;;;19.40;22.80;;;;;;2236928;62;20922;-69
2022/12/09 05:23:55;0.00;0.00;0.62;0.00;0.00;0.62;6.50;5.80;;;19.30;22.70;;;;;;2235521;62;20823;-69
2022/12/09 05:26:40;0.00;0.00;0.62;0.00;0.00;0.62;5.73;5.20;;;19.30;22.70;;;;;;2236845;62;20899;-68
2022/12/09 05:29:26;0.00;0.00;0.62;0.00;0.00;0.62;5.60;5.00;;;19.30;22.80;;;;;;2236214;61;20431;-69
2022/12/09 05:32:10;0.00;0.00;0.62;0.00;0.00;0.62;6.27;5.67;;;19.30;22.80;;;;;;2235469;62;20491;-70
2022/12/09 05:34:55;0.00;0.00;0.62;0.00;0.00;0.62;6.23;4.77;;;19.30;22.80;;;;;;2236758;62;20806;-69
2022/12/09 05:37:40;0.00;0.00;0.62;0.00;0.00;0.62;6.97;5.80;;;19.30;22.80;;;;;;2236515;62;20667;-70
2022/12/09 05:40:26;0.00;0.00;0.62;0.00;0.00;0.62;7.20;6.10;;;19.30;22.80;;;;;;2232861;62;20923;-68
2022/12/09 05:43:11;0.00;0.00;0.62;0.00;0.00;0.62;6.60;5.57;;;19.20;22.70;;;;;;2236803;62;20370;-68
2022/12/09 05:45:55;0.00;0.00;0.62;0.00;0.00;0.62;5.90;5.33;;;19.20;22.70;;;;;;2235186;62;20470;-68
2022/12/09 05:48:40;0.00;0.00;0.62;0.00;0.00;0.62;5.80;5.10;;;19.20;22.70;;;;;;2236649;61;20789;-70
2022/12/09 05:51:27;0.00;0.00;0.62;0.00;0.00;0.62;6.20;4.93;;;19.20;22.70;;;;;;2236497;62;20371;-70
2022/12/09 05:54:12;0.00;0.00;0.62;0.00;0.00;0.62;6.70;4.80;;;19.20;22.80;;;;;;2235381;62;20450;-69
2022/12/09 05:56:59;0.00;0.00;0.62;0.00;0.00;0.62;5.87;5.27;;;19.20;22.70;;;;;;2236907;62;20411;-69
2022/12/09 05:59:44;0.00;0.00;0.62;0.00;0.00;0.62;6.97;5.57;;;19.10;22.70;;;;;;2236697;61;20931;-67
2022/12/09 06:02:29;0.00;0.00;0.62;0.00;0.00;0.62;5.60;4.70;;;19.10;22.70;;;;;;2235741;62;20401;-70
2022/12/09 06:05:14;0.00;0.00;0.62;0.00;0.00;0.62;5.97;4.73;;;19.10;22.70;;;;;;2236549;62;20367;-69
2022/12/09 06:07:59;0.00;0.00;0.62;0.00;0.00;0.62;5.90;4.80;;;19.10;22.70;;;;;;2235710;62;20464;-69
2022/12/09 06:10:44;0.00;0.00;0.62;0.00;0.00;0.62;6.00;4.67;;;19.10;22.70;;;;;;2236772;62;20370;-70
2022/12/09 06:13:30;0.00;0.00;0.62;0.00;0.00;0.62;6.60;5.67;;;19.10;22.70;;;;;;2233085;62;20391;-70
2022/12/09 06:16:17;0.00;0.00;0.62;0.00;0.00;0.62;5.73;5.07;;;19.10;22.70;;;;;;2234812;61;20498;-69
2022/12/09 06:19:03;0.00;0.00;0.62;0.00;0.00;0.62;6.60;5.53;;;19.00;22.60;;;;;;2240354;61;20385;-68
2022/12/09 06:21:47;0.00;0.00;0.62;0.00;0.00;0.62;6.40;5.40;;;19.00;22.60;;;;;;2240602;61;20366;-69
2022/12/09 06:24:33;0.00;0.00;0.62;0.00;0.00;0.62;4.73;4.33;;;19.00;22.60;;;;;;2239203;61;20366;-69
2022/12/09 06:27:18;0.00;0.00;0.62;0.00;0.00;0.62;7.30;5.77;;;19.00;22.60;;;;;;2240543;61;20878;-70
2022/12/09 06:30:06;0.00;0.00;0.62;0.00;0.00;0.62;5.93;5.33;;;19.00;22.60;;;;;;2240043;61;20385;-70
2022/12/09 06:32:50;0.00;0.00;0.62;0.00;0.00;0.62;5.83;5.20;;;19.00;22.60;;;;;;2240575;61;20378;-68
2022/12/09 06:35:35;0.00;0.00;0.62;0.00;0.00;0.62;6.37;5.30;;;18.90;22.50;;;;;;2240384;61;20429;-68
2022/12/09 06:38:20;0.00;0.00;0.62;0.00;0.00;0.62;9.50;5.23;;;18.90;22.50;;;;;;2239202;61;20767;-68
2022/12/09 06:41:06;0.00;0.00;0.62;0.00;0.00;0.62;6.40;5.20;;;18.90;22.50;;;;;;2237206;61;20397;-70
2022/12/09 06:43:52;0.00;0.00;0.62;0.00;0.00;0.62;7.03;6.23;;;18.90;22.60;;;;;;2240485;61;20374;-68
2022/12/09 06:46:38;0.00;0.00;0.62;0.00;0.00;0.62;8.40;6.30;;;18.90;22.50;;;;;;2239003;61;20361;-68
2022/12/09 06:49:23;0.00;0.00;0.62;0.00;0.00;0.62;7.10;6.40;;;18.90;22.50;;;;;;2240436;61;20470;-68
2022/12/09 06:52:08;0.00;0.00;0.62;0.00;0.00;0.62;7.10;6.40;;;18.90;22.50;;;;;;2239971;61;20361;-71
2022/12/09 06:54:52;0.00;0.00;0.62;0.00;0.00;0.62;6.20;5.60;;;18.90;22.50;;;;;;2239968;61;20909;-71
2022/12/09 06:57:37;0.00;0.00;0.62;0.00;0.00;0.62;7.77;6.07;;;18.90;22.60;;;;;;2237137;61;20413;-70
2022/12/09 07:00:22;0.00;0.00;0.62;0.00;0.00;0.62;6.00;5.37;;;18.90;22.60;;;;;;2236104;61;20790;-68
2022/12/09 07:03:10;0.00;0.00;0.62;0.00;0.00;0.62;6.73;5.30;;;18.90;22.60;;;;;;2240303;61;20449;-69
2022/12/09 07:05:55;0.00;0.00;0.62;0.00;0.00;0.62;8.33;6.37;;;18.80;22.60;;;;;;2240390;61;20378;-68
2022/12/09 07:08:39;0.00;0.00;0.62;0.00;0.00;0.62;5.90;5.23;;;18.80;22.60;;;;;;2239015;61;20433;-64
2022/12/09 07:11:24;0.00;0.00;0.62;0.00;0.00;0.62;5.77;5.00;;;18.80;22.70;;;;;;2240386;61;20370;-68
2022/12/09 07:14:09;0.00;0.00;0.62;0.00;0.00;0.62;5.87;5.27;;;18.80;22.70;;;;;;2236102;62;20425;-65
2022/12/09 07:16:54;0.00;0.00;0.62;0.00;0.00;0.62;6.40;5.20;;;18.80;22.70;;;;;;2235838;62;20382;-65
2022/12/09 07:19:40;0.00;0.00;0.62;0.00;0.00;0.62;7.13;6.20;;;18.80;22.80;;;;;;2236423;61;20898;-62
2022/12/09 07:22:24;0.00;0.00;0.62;0.00;0.00;0.62;7.23;5.23;;;18.80;22.80;;;;;;2234771;62;20402;-63
2022/12/09 07:25:09;0.00;0.00;0.62;0.00;0.00;0.62;6.40;5.37;;;18.70;22.80;;;;;;2236431;62;20363;-66
2022/12/09 07:27:54;0.00;0.00;0.62;0.00;0.00;0.62;7.03;5.43;;;18.70;22.80;;;;;;2236340;62;20362;-63
2022/12/09 07:30:38;0.00;0.00;0.62;0.00;0.00;0.62;6.33;5.60;;;18.70;23.30;;;;;;2235194;62;20366;-67
2022/12/09 07:33:23;0.00;0.00;0.62;0.00;0.00;0.62;6.47;5.60;;;18.80;22.90;;;;;;2236001;62;20446;-63
2022/12/09 07:36:09;0.00;0.00;0.62;0.00;0.00;0.62;6.73;5.83;;;18.70;22.80;;;;;;2236386;62;20370;-65
2022/12/09 07:38:55;0.00;0.00;0.62;0.00;0.00;0.62;6.30;5.30;;;18.80;22.90;;;;;;2235689;61;20398;-66
2022/12/09 07:41:40;0.00;0.00;0.62;0.00;0.00;0.62;6.67;5.40;;;18.70;22.80;;;;;;2236242;62;20423;-69
2022/12/09 07:44:28;0.00;0.00;0.62;0.00;0.00;0.62;7.50;5.57;;;18.80;22.90;;;;;;2235145;62;20963;-64
2022/12/09 07:47:13;0.00;0.00;0.62;0.00;0.00;0.62;7.07;5.90;;;18.70;22.80;;;;;;2236342;62;20422;-69
2022/12/09 07:49:57;0.00;0.00;0.62;0.00;0.00;0.62;6.77;5.20;;;18.70;22.90;;;;;;2236384;61;20394;-68
2022/12/09 07:52:43;0.00;0.00;0.62;0.00;0.00;0.62;8.00;5.87;;;18.70;22.90;;;;;;2235140;62;20770;-65
2022/12/09 07:55:28;0.00;0.00;0.62;0.00;0.00;0.62;6.90;5.80;;;18.70;22.90;;;;;;2236263;62;20363;-68
2022/12/09 07:58:12;0.00;0.00;0.62;0.00;0.00;0.62;7.90;6.00;;;18.70;22.90;;;;;;2235674;61;20434;-64
2022/12/09 08:01:04;0.00;0.00;0.62;0.00;0.00;0.62;6.80;5.40;;;18.70;22.90;;;;;;2235606;62;20386;-65
2022/12/09 08:03:50;0.00;0.00;0.62;0.00;0.00;0.62;8.30;6.33;;;18.70;22.90;;;;;;2236297;62;20443;-65
2022/12/09 08:06:36;0.00;0.00;0.62;0.00;0.00;0.62;7.50;6.20;;;18.70;22.90;;;;;;2235194;62;20383;-66
2022/12/09 08:09:22;0.00;0.00;0.62;0.00;0.00;0.62;6.73;5.33;;;18.70;22.90;;;;;;2236010;61;20423;-65
2022/12/09 08:12:09;0.00;0.00;0.62;0.00;0.00;0.62;5.97;5.37;;;18.70;22.90;;;;;;2236184;62;20381;-65
2022/12/09 08:14:54;0.00;0.00;0.62;0.00;0.00;0.62;6.20;5.50;;;18.70;23.00;;;;;;2235081;62;20482;-65
2022/12/09 08:17:38;0.00;0.00;0.62;0.00;0.00;0.62;8.77;6.20;;;18.70;22.90;;;;;;2236110;62;20421;-64
2022/12/09 08:20:23;0.00;0.00;0.62;0.00;0.00;0.62;9.07;6.03;;;18.70;22.90;;;;;;2236079;62;20401;-68
2022/12/09 08:23:08;0.00;0.00;0.62;0.00;0.00;0.62;6.33;5.23;;;18.70;23.00;;;;;;2235585;62;20374;-66
2022/12/09 08:25:55;0.00;0.00;0.62;0.00;0.00;0.62;7.77;6.40;;;18.70;23.00;;;;;;2236187;62;20418;-65
2022/12/09 08:28:40;0.00;0.00;0.62;0.00;0.00;0.62;6.43;5.33;;;18.70;23.00;;;;;;2235494;61;20478;-64
2022/12/09 08:31:26;0.00;0.00;0.62;0.00;0.00;0.62;5.80;4.57;;;18.70;23.10;;;;;;2236584;62;20655;-65
2022/12/09 08:34:11;0.00;0.00;0.62;0.00;0.00;0.62;7.17;5.17;;;18.70;23.10;;;;;;2236186;62;20434;-63
2022/12/09 08:36:56;0.00;0.00;0.62;0.00;0.00;0.62;5.10;4.03;;;18.70;23.20;;;;;;2234780;62;20386;-63
2022/12/09 08:39:40;0.00;0.00;0.62;0.00;0.00;0.62;5.37;4.73;;;18.70;23.20;;;;;;2237894;61;20394;-61
2022/12/09 08:42:29;0.00;0.00;0.62;0.00;0.00;0.62;7.27;5.80;;;18.70;23.20;;;;;;2241952;62;20989;-61
2022/12/09 08:45:14;0.00;0.00;0.62;0.00;0.00;0.62;7.40;4.33;;;18.80;23.30;;;;;;2238419;62;20398;-62
2022/12/09 08:47:58;0.00;0.00;0.62;0.00;0.00;0.62;6.87;4.50;;;18.80;23.40;;;;;;2235968;62;20414;-64
2022/12/09 08:50:43;0.00;0.00;0.62;0.00;0.00;0.62;4.67;4.03;;;18.80;23.30;;;;;;2235849;62;20362;-63
2022/12/09 08:53:28;0.00;0.00;0.62;0.00;0.00;0.62;4.37;3.97;;;18.70;23.30;;;;;;2236070;62;20393;-63
2022/12/09 08:56:14;0.00;0.00;0.62;0.00;0.00;0.62;4.53;4.13;;;18.80;23.40;;;;;;2236217;62;20891;-60
2022/12/09 08:59:00;0.00;0.00;0.62;0.00;0.00;0.62;3.50;3.07;;;18.80;23.40;;;;;;2235034;61;20470;-64
2022/12/09 09:01:44;0.00;0.00;0.62;0.00;0.00;0.62;5.50;4.50;;;18.80;23.30;;;;;;2236491;62;20393;-64
2022/12/09 09:04:32;0.00;0.00;0.62;0.00;0.00;0.62;4.40;3.80;;;18.80;23.40;;;;;;2236481;62;20402;-64
2022/12/09 09:07:17;0.00;0.00;0.62;0.00;0.00;0.62;4.73;3.77;;;18.80;23.50;;;;;;2235609;62;20377;-65
2022/12/09 09:10:02;0.00;0.00;0.62;0.00;0.00;0.62;4.43;3.40;;;18.80;23.50;;;;;;2237003;61;20382;-62
2022/12/09 09:12:47;0.00;0.00;0.62;0.00;0.00;0.62;4.23;3.37;;;18.80;23.50;;;;;;2236546;62;20781;-62
2022/12/09 09:15:33;0.00;0.00;0.62;0.00;0.00;0.62;3.07;2.77;;;18.80;23.50;;;;;;2236957;62;20397;-61
2022/12/09 09:18:18;0.00;0.00;0.62;0.00;0.00;0.62;3.83;3.00;;;18.80;23.60;;;;;;2236939;61;20438;-63
2022/12/09 09:21:04;0.00;0.00;0.62;0.00;0.00;0.62;4.47;3.37;;;18.90;23.70;;;;;;2235621;62;20418;-64
2022/12/09 09:23:48;0.00;0.00;0.62;0.00;0.00;0.62;4.07;3.20;;;18.90;23.70;;;;;;2236820;62;20887;-64
2022/12/09 09:26:33;0.00;0.00;0.62;0.00;0.00;0.62;3.23;2.90;;;18.90;23.70;;;;;;2236940;62;20370;-63
2022/12/09 09:29:20;0.00;0.00;0.62;0.00;0.00;0.62;5.40;3.30;;;18.90;23.70;;;;;;2235773;61;20434;-66
2022/12/09 09:32:07;0.00;0.00;0.62;0.00;0.00;0.62;4.63;3.43;;;18.90;23.80;;;;;;2236590;62;20421;-65
2022/12/09 09:34:52;0.00;0.00;0.62;0.00;0.00;0.62;3.40;2.87;;;19.00;23.90;;;;;;2236539;62;20919;-67
2022/12/09 09:37:37;0.00;0.00;0.62;0.00;0.00;0.62;3.57;2.70;;;19.00;23.90;;;;;;2236331;62;20881;-69
2022/12/09 09:40:22;0.00;0.00;0.62;0.00;0.00;0.62;3.93;3.53;;;19.00;23.90;;;;;;2236942;62;20387;-66
2022/12/09 09:43:14;0.00;0.00;0.62;0.00;0.00;0.62;4.27;3.47;;;19.00;24.00;;;;;;2235741;62;20366;-66
2022/12/09 09:45:59;0.00;0.00;0.62;0.00;0.00;0.62;4.00;2.90;;;19.00;24.00;;;;;;2236975;61;20380;-65
2022/12/09 09:48:48;0.00;0.00;0.62;0.00;0.00;0.62;3.20;2.47;;;19.10;24.10;;;;;;2240647;61;20385;-64
2022/12/09 09:51:34;0.00;0.00;0.62;0.00;0.00;0.62;4.30;3.07;;;19.10;24.10;;;;;;2240008;61;20397;-69
2022/12/09 09:54:19;0.00;0.00;0.62;0.00;0.00;0.62;3.00;2.53;;;19.10;24.10;;;;;;2240435;61;20393;-69
2022/12/09 09:57:12;0.00;0.00;0.62;0.00;0.00;0.62;3.13;2.17;;;19.20;24.20;;;;;;2240389;61;20881;-66
2022/12/09 10:00:09;0.00;0.00;0.62;0.00;0.00;0.62;3.70;2.50;;;19.20;24.20;;;;;;2240230;61;20388;-67
2022/12/09 10:03:08;0.00;0.00;0.62;0.00;0.00;0.62;5.27;2.83;;;19.20;24.20;;;;;;2240820;61;20365;-63
2022/12/09 10:05:59;0.00;0.00;0.62;0.00;0.00;0.62;3.33;2.33;;;19.20;24.20;;;;;;2239848;61;20421;-64
2022/12/09 10:08:55;0.00;0.00;0.62;0.00;0.00;0.62;3.27;2.57;;;19.30;24.30;;;;;;2240156;61;20441;-63
2022/12/09 10:11:56;0.00;0.00;0.62;0.00;0.00;0.62;2.97;2.67;;;19.30;24.30;;;;;;2240239;61;20474;-64
2022/12/09 10:14:49;0.00;0.00;0.62;0.00;0.00;0.62;4.37;2.63;;;19.30;24.30;;;;;;2240073;61;20388;-64
2022/12/09 10:17:44;0.00;0.00;0.62;0.00;0.00;0.62;2.47;2.20;;;19.30;24.20;;;;;;2240616;61;20370;-63
2022/12/09 10:20:31;0.00;0.00;0.62;0.00;0.00;0.62;3.47;2.70;;;19.40;24.70;;;;;;2239952;61;20381;-65
2022/12/09 10:23:19;0.00;0.00;0.62;0.00;0.00;0.62;3.03;2.23;;;19.40;24.10;;;;;;2240204;61;20425;-61
2022/12/09 10:26:05;0.00;0.00;0.62;0.00;0.00;0.62;3.23;2.23;;;19.40;24.10;;;;;;2240675;61;20378;-63
2022/12/09 10:29:03;0.00;0.00;0.62;0.00;0.00;0.62;4.00;2.47;;;19.40;24.10;;;;;;2239637;61;20400;-62
2022/12/09 10:31:48;0.00;0.00;0.62;0.00;0.00;0.62;2.60;2.20;;;19.50;24.20;;;;;;2240765;61;20460;-62
2022/12/09 10:34:32;0.00;0.00;0.62;0.00;0.00;0.62;3.07;2.33;;;19.50;24.20;;;;;;2239203;61;20385;-63
2022/12/09 10:37:28;0.00;0.00;0.62;0.00;0.00;0.62;3.33;2.23;;;19.50;24.20;;;;;;2240324;61;20778;-63
2022/12/09 10:40:27;0.00;0.00;0.62;0.00;0.00;0.62;3.20;2.50;;;19.50;24.20;;;;;;2240640;61;20405;-63
2022/12/09 10:43:42;0.00;0.00;0.62;0.00;0.00;0.62;2.90;2.17;;;19.50;24.00;;;;;;2239867;61;20418;-67
2022/12/09 10:46:28;0.00;0.00;0.62;0.00;0.00;0.62;2.53;2.30;;;19.50;24.00;;;;;;2240131;61;20369;-66
2022/12/09 10:49:19;0.00;0.00;0.62;0.00;0.00;0.62;3.00;2.33;;;19.60;24.00;;;;;;2240084;61;20389;-62
2022/12/09 10:52:05;0.00;0.00;0.62;0.00;0.00;0.62;2.97;2.20;;;19.60;24.10;;;;;;2240244;61;20490;-62
2022/12/09 10:54:50;0.00;0.00;0.62;0.00;0.00;0.62;2.83;2.30;;;19.60;24.10;;;;;;2240422;61;20898;-62
2022/12/09 10:57:36;0.00;0.00;0.62;0.00;0.00;0.62;2.87;2.00;;;19.60;24.10;;;;;;2239635;61;20486;-62
2022/12/09 11:00:23;0.00;0.00;0.62;0.00;0.00;0.62;6.20;2.60;;;19.60;24.00;;;;;;2240124;61;20394;-61